Terminal Aerodrome Forecast
Issued by NWS Mt. Holly, NJ

Home | Current Version | Previous Version | Text Only | Print | Product List | Glossary On
Versions: 1 2 3 4 5 6 7 8 9 10 11 12 13 14 15 16 17 18 19 20
096
FTUS41 KPHI 271330 AAA
TAFILG
TAF AMD
KILG 271330Z 2714/2812 VRB04KT 5SM -SHRA BR OVC003
     FM271430 VRB06KT 6SM BR OVC005
     FM271600 23006KT P6SM BKN020 BKN200
     FM272000 23008KT P6SM VCSH BKN050
     FM280800 VRB02KT 3SM -SHRA BR OVC010=

USA.gov is the U.S. government's official web portal to all federal, state and local government web resources and services.